sensor_id;sensor_type;location;lat;lon;timestamp;temperature;humidity
14682;DHT22;7429;52.498;13.480;2023-11-19T00:00:56;4.80;99.90
14682;DHT22;7429;52.498;13.480;2023-11-19T00:03:59;4.80;99.90
14682;DHT22;7429;52.498;13.480;2023-11-19T00:07:03;4.80;99.90
14682;DHT22;7429;52.498;13.480;2023-11-19T00:10:08;4.80;99.90
14682;DHT22;7429;52.498;13.480;2023-11-19T00:13:12;4.80;99.90
14682;DHT22;7429;52.498;13.480;2023-11-19T00:16:17;4.80;99.90
14682;DHT22;7429;52.498;13.480;2023-11-19T00:19:20;4.80;99.90
14682;DHT22;7429;52.498;13.480;2023-11-19T00:22:24;4.80;99.90
14682;DHT22;7429;52.498;13.480;2023-11-19T00:25:27;4.70;99.90
14682;DHT22;7429;52.498;13.480;2023-11-19T00:28:33;4.70;99.90
14682;DHT22;7429;52.498;13.480;2023-11-19T00:31:38;4.70;99.90
14682;DHT22;7429;52.498;13.480;2023-11-19T00:34:43;4.70;99.90
14682;DHT22;7429;52.498;13.480;2023-11-19T00:37:47;4.70;99.90
14682;DHT22;7429;52.498;13.480;2023-11-19T00:40:51;4.70;99.90
14682;DHT22;7429;52.498;13.480;2023-11-19T00:43:54;4.70;99.90
14682;DHT22;7429;52.498;13.480;2023-11-19T00:46:58;4.70;99.90
14682;DHT22;7429;52.498;13.480;2023-11-19T00:50:03;4.80;99.90
14682;DHT22;7429;52.498;13.480;2023-11-19T00:53:06;4.80;99.90
14682;DHT22;7429;52.498;13.480;2023-11-19T00:56:11;4.80;99.90
14682;DHT22;7429;52.498;13.480;2023-11-19T00:59:15;4.90;99.90
14682;DHT22;7429;52.498;13.480;2023-11-19T01:02:19;4.80;99.90
14682;DHT22;7429;52.498;13.480;2023-11-19T01:05:24;4.90;99.90
14682;DHT22;7429;52.498;13.480;2023-11-19T01:08:27;4.90;99.90
14682;DHT22;7429;52.498;13.480;2023-11-19T01:11:30;4.90;99.90
14682;DHT22;7429;52.498;13.480;2023-11-19T01:14:34;4.90;99.90
14682;DHT22;7429;52.498;13.480;2023-11-19T01:17:38;4.90;99.90
14682;DHT22;7429;52.498;13.480;2023-11-19T01:20:52;4.80;99.90
14682;DHT22;7429;52.498;13.480;2023-11-19T01:23:55;4.90;99.90
14682;DHT22;7429;52.498;13.480;2023-11-19T01:26:58;4.80;99.90
14682;DHT22;7429;52.498;13.480;2023-11-19T01:30:02;4.80;99.90
14682;DHT22;7429;52.498;13.480;2023-11-19T01:33:09;4.80;99.90
14682;DHT22;7429;52.498;13.480;2023-11-19T01:36:13;4.90;99.90
14682;DHT22;7429;52.498;13.480;2023-11-19T01:39:16;4.90;99.90
14682;DHT22;7429;52.498;13.480;2023-11-19T01:42:21;4.90;99.90
14682;DHT22;7429;52.498;13.480;2023-11-19T01:45:29;5.00;99.90
14682;DHT22;7429;52.498;13.480;2023-11-19T01:48:34;5.00;99.90
14682;DHT22;7429;52.498;13.480;2023-11-19T01:51:38;5.00;99.90
14682;DHT22;7429;52.498;13.480;2023-11-19T01:54:42;5.00;99.90
14682;DHT22;7429;52.498;13.480;2023-11-19T01:57:47;5.00;99.90
14682;DHT22;7429;52.498;13.480;2023-11-19T02:00:51;5.00;99.90
14682;DHT22;7429;52.498;13.480;2023-11-19T02:03:56;5.10;99.90
14682;DHT22;7429;52.498;13.480;2023-11-19T02:07:00;5.00;99.90
14682;DHT22;7429;52.498;13.480;2023-11-19T02:10:04;5.00;99.90
14682;DHT22;7429;52.498;13.480;2023-11-19T02:13:15;5.10;99.90
14682;DHT22;7429;52.498;13.480;2023-11-19T02:16:18;5.00;99.90
14682;DHT22;7429;52.498;13.480;2023-11-19T02:19:23;5.00;99.90
14682;DHT22;7429;52.498;13.480;2023-11-19T02:22:27;5.00;99.90
14682;DHT22;7429;52.498;13.480;2023-11-19T02:25:32;5.00;99.90
14682;DHT22;7429;52.498;13.480;2023-11-19T02:28:37;4.90;99.90
14682;DHT22;7429;52.498;13.480;2023-11-19T02:31:40;5.00;99.90
14682;DHT22;7429;52.498;13.480;2023-11-19T02:34:44;5.00;99.90
14682;DHT22;7429;52.498;13.480;2023-11-19T02:37:47;4.90;99.90
14682;DHT22;7429;52.498;13.480;2023-11-19T02:40:50;5.00;99.90
14682;DHT22;7429;52.498;13.480;2023-11-19T02:43:55;5.00;99.90
14682;DHT22;7429;52.498;13.480;2023-11-19T02:46:58;5.00;99.90
14682;DHT22;7429;52.498;13.480;2023-11-19T02:50:02;5.10;99.90
14682;DHT22;7429;52.498;13.480;2023-11-19T02:53:05;5.10;99.90
14682;DHT22;7429;52.498;13.480;2023-11-19T02:56:08;5.10;99.90
14682;DHT22;7429;52.498;13.480;2023-11-19T02:59:22;5.10;99.90
14682;DHT22;7429;52.498;13.480;2023-11-19T03:02:29;5.20;99.90
14682;DHT22;7429;52.498;13.480;2023-11-19T03:05:36;5.20;99.90
14682;DHT22;7429;52.498;13.480;2023-11-19T03:08:42;5.20;99.90
14682;DHT22;7429;52.498;13.480;2023-11-19T03:11:45;5.30;99.90
14682;DHT22;7429;52.498;13.480;2023-11-19T03:14:49;5.30;99.90
14682;DHT22;7429;52.498;13.480;2023-11-19T03:17:53;5.30;99.90
14682;DHT22;7429;52.498;13.480;2023-11-19T03:20:56;5.30;99.90
14682;DHT22;7429;52.498;13.480;2023-11-19T03:24:00;5.40;99.90
14682;DHT22;7429;52.498;13.480;2023-11-19T03:27:04;5.40;99.90
14682;DHT22;7429;52.498;13.480;2023-11-19T03:30:09;5.40;99.90
14682;DHT22;7429;52.498;13.480;2023-11-19T03:33:13;5.40;99.90
14682;DHT22;7429;52.498;13.480;2023-11-19T03:36:17;5.40;99.90
14682;DHT22;7429;52.498;13.480;2023-11-19T03:39:20;5.40;99.90
14682;DHT22;7429;52.498;13.480;2023-11-19T03:42:26;5.40;99.90
14682;DHT22;7429;52.498;13.480;2023-11-19T03:45:31;5.40;99.90
14682;DHT22;7429;52.498;13.480;2023-11-19T03:48:34;5.30;99.90
14682;DHT22;7429;52.498;13.480;2023-11-19T03:51:37;5.20;99.90
14682;DHT22;7429;52.498;13.480;2023-11-19T03:54:40;5.20;99.90
14682;DHT22;7429;52.498;13.480;2023-11-19T03:57:43;5.10;99.90
14682;DHT22;7429;52.498;13.480;2023-11-19T04:00:48;5.10;99.90
14682;DHT22;7429;52.498;13.480;2023-11-19T04:03:52;5.00;99.90
14682;DHT22;7429;52.498;13.480;2023-11-19T04:06:55;4.90;99.90
14682;DHT22;7429;52.498;13.480;2023-11-19T04:10:00;4.90;99.90
14682;DHT22;7429;52.498;13.480;2023-11-19T04:13:03;4.90;99.90
14682;DHT22;7429;52.498;13.480;2023-11-19T04:16:08;4.80;99.90
14682;DHT22;7429;52.498;13.480;2023-11-19T04:19:11;4.80;99.90
14682;DHT22;7429;52.498;13.480;2023-11-19T04:22:14;4.80;99.90
14682;DHT22;7429;52.498;13.480;2023-11-19T04:25:20;4.80;99.90
14682;DHT22;7429;52.498;13.480;2023-11-19T04:28:25;4.80;99.90
14682;DHT22;7429;52.498;13.480;2023-11-19T04:31:30;4.80;99.90
14682;DHT22;7429;52.498;13.480;2023-11-19T04:34:34;4.80;99.90
14682;DHT22;7429;52.498;13.480;2023-11-19T04:37:39;4.80;99.90
14682;DHT22;7429;52.498;13.480;2023-11-19T04:40:42;4.80;99.90
14682;DHT22;7429;52.498;13.480;2023-11-19T04:43:47;4.80;99.90
14682;DHT22;7429;52.498;13.480;2023-11-19T04:46:51;4.90;99.90
14682;DHT22;7429;52.498;13.480;2023-11-19T04:49:55;4.90;99.90
14682;DHT22;7429;52.498;13.480;2023-11-19T04:52:58;4.80;99.90
14682;DHT22;7429;52.498;13.480;2023-11-19T04:56:07;4.90;99.90
14682;DHT22;7429;52.498;13.480;2023-11-19T04:59:11;4.80;99.90
14682;DHT22;7429;52.498;13.480;2023-11-19T05:02:15;4.90;99.90
14682;DHT22;7429;52.498;13.480;2023-11-19T05:05:19;4.80;99.90
14682;DHT22;7429;52.498;13.480;2023-11-19T05:08:22;4.80;99.90
14682;DHT22;7429;52.498;13.480;2023-11-19T05:11:26;4.80;99.90
14682;DHT22;7429;52.498;13.480;2023-11-19T05:14:29;4.80;99.90
14682;DHT22;7429;52.498;13.480;2023-11-19T05:17:36;4.80;99.90
14682;DHT22;7429;52.498;13.480;2023-11-19T05:20:39;4.80;99.90
14682;DHT22;7429;52.498;13.480;2023-11-19T05:23:43;4.70;99.90
14682;DHT22;7429;52.498;13.480;2023-11-19T05:26:46;4.70;99.90
14682;DHT22;7429;52.498;13.480;2023-11-19T05:29:49;4.70;99.90
14682;DHT22;7429;52.498;13.480;2023-11-19T05:32:54;4.80;99.90
14682;DHT22;7429;52.498;13.480;2023-11-19T05:35:57;4.80;99.90
14682;DHT22;7429;52.498;13.480;2023-11-19T05:39:00;4.70;99.90
14682;DHT22;7429;52.498;13.480;2023-11-19T05:42:04;4.70;99.90
14682;DHT22;7429;52.498;13.480;2023-11-19T05:45:09;4.80;99.90
14682;DHT22;7429;52.498;13.480;2023-11-19T05:48:15;4.80;99.90
14682;DHT22;7429;52.498;13.480;2023-11-19T05:51:18;4.80;99.90
14682;DHT22;7429;52.498;13.480;2023-11-19T05:54:21;4.80;99.90
14682;DHT22;7429;52.498;13.480;2023-11-19T05:57:24;4.80;99.90
14682;DHT22;7429;52.498;13.480;2023-11-19T06:00:29;4.80;99.90
14682;DHT22;7429;52.498;13.480;2023-11-19T06:03:33;4.80;99.90
14682;DHT22;7429;52.498;13.480;2023-11-19T06:06:37;4.90;99.90
14682;DHT22;7429;52.498;13.480;2023-11-19T06:09:40;4.80;99.90
14682;DHT22;7429;52.498;13.480;2023-11-19T06:12:45;4.80;99.90
14682;DHT22;7429;52.498;13.480;2023-11-19T06:15:49;4.80;99.90
14682;DHT22;7429;52.498;13.480;2023-11-19T06:18:54;4.90;99.90
14682;DHT22;7429;52.498;13.480;2023-11-19T06:21:58;4.90;99.90
14682;DHT22;7429;52.498;13.480;2023-11-19T06:25:01;4.90;99.90
14682;DHT22;7429;52.498;13.480;2023-11-19T06:28:12;4.90;99.90
14682;DHT22;7429;52.498;13.480;2023-11-19T06:31:15;4.90;99.90
14682;DHT22;7429;52.498;13.480;2023-11-19T06:34:19;5.00;99.90
14682;DHT22;7429;52.498;13.480;2023-11-19T06:37:23;4.90;99.90
14682;DHT22;7429;52.498;13.480;2023-11-19T06:40:26;5.00;99.90
14682;DHT22;7429;52.498;13.480;2023-11-19T06:43:29;5.00;99.90
14682;DHT22;7429;52.498;13.480;2023-11-19T06:46:43;5.10;99.90
14682;DHT22;7429;52.498;13.480;2023-11-19T06:49:48;5.10;99.90
14682;DHT22;7429;52.498;13.480;2023-11-19T06:52:53;5.00;99.90
14682;DHT22;7429;52.498;13.480;2023-11-19T06:55:56;5.10;99.90
14682;DHT22;7429;52.498;13.480;2023-11-19T06:58:59;5.10;99.90
14682;DHT22;7429;52.498;13.480;2023-11-19T07:02:03;5.10;99.90
14682;DHT22;7429;52.498;13.480;2023-11-19T07:05:08;5.10;99.90
14682;DHT22;7429;52.498;13.480;2023-11-19T07:08:11;5.20;99.90
14682;DHT22;7429;52.498;13.480;2023-11-19T07:11:14;5.20;99.90
14682;DHT22;7429;52.498;13.480;2023-11-19T07:14:19;5.20;99.90
14682;DHT22;7429;52.498;13.480;2023-11-19T07:17:22;5.20;99.90
14682;DHT22;7429;52.498;13.480;2023-11-19T07:20:27;5.20;99.90
14682;DHT22;7429;52.498;13.480;2023-11-19T07:23:30;5.30;99.90
14682;DHT22;7429;52.498;13.480;2023-11-19T07:26:36;5.30;99.90
14682;DHT22;7429;52.498;13.480;2023-11-19T07:29:44;5.30;99.90
14682;DHT22;7429;52.498;13.480;2023-11-19T07:32:48;5.40;99.90
14682;DHT22;7429;52.498;13.480;2023-11-19T07:35:53;5.40;99.90
14682;DHT22;7429;52.498;13.480;2023-11-19T07:38:56;5.40;99.90
14682;DHT22;7429;52.498;13.480;2023-11-19T07:42:28;5.40;99.90
14682;DHT22;7429;52.498;13.480;2023-11-19T07:45:31;5.40;99.90
14682;DHT22;7429;52.498;13.480;2023-11-19T07:48:36;5.40;99.90
14682;DHT22;7429;52.498;13.480;2023-11-19T07:51:41;5.50;99.90
14682;DHT22;7429;52.498;13.480;2023-11-19T07:54:48;5.50;99.90
14682;DHT22;7429;52.498;13.480;2023-11-19T07:57:54;5.50;99.90
14682;DHT22;7429;52.498;13.480;2023-11-19T08:00:57;5.50;99.90
14682;DHT22;7429;52.498;13.480;2023-11-19T08:04:00;5.50;99.90
14682;DHT22;7429;52.498;13.480;2023-11-19T08:07:06;5.50;99.90
14682;DHT22;7429;52.498;13.480;2023-11-19T08:10:11;5.60;99.90
14682;DHT22;7429;52.498;13.480;2023-11-19T08:13:15;5.60;99.90
14682;DHT22;7429;52.498;13.480;2023-11-19T08:16:26;5.70;99.90
14682;DHT22;7429;52.498;13.480;2023-11-19T08:19:38;5.70;99.90
14682;DHT22;7429;52.498;13.480;2023-11-19T08:22:52;5.70;99.90
14682;DHT22;7429;52.498;13.480;2023-11-19T08:26:05;5.80;99.90
14682;DHT22;7429;52.498;13.480;2023-11-19T08:29:40;5.80;99.90
14682;DHT22;7429;52.498;13.480;2023-11-19T08:32:51;5.90;99.90
14682;DHT22;7429;52.498;13.480;2023-11-19T08:35:59;5.90;99.90
14682;DHT22;7429;52.498;13.480;2023-11-19T08:39:05;5.90;99.90
14682;DHT22;7429;52.498;13.480;2023-11-19T08:42:10;6.00;99.90
14682;DHT22;7429;52.498;13.480;2023-11-19T08:45:13;6.00;99.90
14682;DHT22;7429;52.498;13.480;2023-11-19T08:48:16;6.10;99.90
14682;DHT22;7429;52.498;13.480;2023-11-19T08:51:22;6.10;99.90
14682;DHT22;7429;52.498;13.480;2023-11-19T08:54:28;6.20;99.90
14682;DHT22;7429;52.498;13.480;2023-11-19T08:57:31;6.20;99.90
14682;DHT22;7429;52.498;13.480;2023-11-19T09:00:34;6.30;99.90
14682;DHT22;7429;52.498;13.480;2023-11-19T09:03:37;6.40;99.90
14682;DHT22;7429;52.498;13.480;2023-11-19T09:06:40;6.50;99.90
14682;DHT22;7429;52.498;13.480;2023-11-19T09:09:45;6.50;99.90
14682;DHT22;7429;52.498;13.480;2023-11-19T09:12:48;6.60;99.90
14682;DHT22;7429;52.498;13.480;2023-11-19T09:15:52;6.60;99.90
14682;DHT22;7429;52.498;13.480;2023-11-19T09:18:55;6.70;99.90
14682;DHT22;7429;52.498;13.480;2023-11-19T09:22:06;6.70;99.90
14682;DHT22;7429;52.498;13.480;2023-11-19T09:25:11;6.80;99.90
14682;DHT22;7429;52.498;13.480;2023-11-19T09:28:18;6.90;99.90
14682;DHT22;7429;52.498;13.480;2023-11-19T09:31:21;6.90;99.90
14682;DHT22;7429;52.498;13.480;2023-11-19T09:34:24;7.00;99.90
14682;DHT22;7429;52.498;13.480;2023-11-19T09:37:28;7.10;99.90
14682;DHT22;7429;52.498;13.480;2023-11-19T09:40:32;7.20;99.90
14682;DHT22;7429;52.498;13.480;2023-11-19T09:43:40;7.40;99.90
14682;DHT22;7429;52.498;13.480;2023-11-19T09:46:44;7.50;99.90
14682;DHT22;7429;52.498;13.480;2023-11-19T09:49:49;7.60;99.90
14682;DHT22;7429;52.498;13.480;2023-11-19T09:53:00;7.70;99.90
14682;DHT22;7429;52.498;13.480;2023-11-19T09:56:08;7.80;99.90
14682;DHT22;7429;52.498;13.480;2023-11-19T09:59:17;8.00;99.90
14682;DHT22;7429;52.498;13.480;2023-11-19T10:02:24;8.10;99.90
14682;DHT22;7429;52.498;13.480;2023-11-19T10:05:31;8.30;99.90
14682;DHT22;7429;52.498;13.480;2023-11-19T10:08:37;8.50;99.90
14682;DHT22;7429;52.498;13.480;2023-11-19T10:11:44;8.60;99.90
14682;DHT22;7429;52.498;13.480;2023-11-19T10:14:48;8.80;99.90
14682;DHT22;7429;52.498;13.480;2023-11-19T10:17:55;8.90;99.90
14682;DHT22;7429;52.498;13.480;2023-11-19T10:20:58;9.00;99.90
14682;DHT22;7429;52.498;13.480;2023-11-19T10:24:05;9.00;99.90
14682;DHT22;7429;52.498;13.480;2023-11-19T10:27:11;9.20;99.90
14682;DHT22;7429;52.498;13.480;2023-11-19T10:30:18;9.30;99.90
14682;DHT22;7429;52.498;13.480;2023-11-19T10:33:21;9.30;99.90
14682;DHT22;7429;52.498;13.480;2023-11-19T10:36:37;9.40;99.90
14682;DHT22;7429;52.498;13.480;2023-11-19T10:39:52;9.50;99.90
14682;DHT22;7429;52.498;13.480;2023-11-19T10:43:03;9.50;99.90
14682;DHT22;7429;52.498;13.480;2023-11-19T10:46:09;9.70;99.90
14682;DHT22;7429;52.498;13.480;2023-11-19T10:49:13;9.90;99.90
14682;DHT22;7429;52.498;13.480;2023-11-19T10:52:18;10.00;99.90
14682;DHT22;7429;52.498;13.480;2023-11-19T10:55:26;10.20;99.90
14682;DHT22;7429;52.498;13.480;2023-11-19T10:58:32;10.30;99.90
14682;DHT22;7429;52.498;13.480;2023-11-19T11:01:43;10.40;99.90
14682;DHT22;7429;52.498;13.480;2023-11-19T11:04:48;10.40;99.90
14682;DHT22;7429;52.498;13.480;2023-11-19T11:07:55;10.60;99.90
14682;DHT22;7429;52.498;13.480;2023-11-19T11:11:02;10.60;99.90
14682;DHT22;7429;52.498;13.480;2023-11-19T11:14:16;10.70;99.90
14682;DHT22;7429;52.498;13.480;2023-11-19T11:17:57;10.70;99.90
14682;DHT22;7429;52.498;13.480;2023-11-19T11:21:06;10.70;99.90
14682;DHT22;7429;52.498;13.480;2023-11-19T11:28:21;10.90;99.90
14682;DHT22;7429;52.498;13.480;2023-11-19T11:31:36;11.00;99.90
14682;DHT22;7429;52.498;13.480;2023-11-19T11:35:09;11.20;99.90
14682;DHT22;7429;52.498;13.480;2023-11-19T11:38:24;11.20;99.90
14682;DHT22;7429;52.498;13.480;2023-11-19T11:41:32;11.20;99.90
14682;DHT22;7429;52.498;13.480;2023-11-19T11:44:59;11.20;99.90
14682;DHT22;7429;52.498;13.480;2023-11-19T11:48:17;11.40;99.90
14682;DHT22;7429;52.498;13.480;2023-11-19T11:54:53;11.60;99.90
14682;DHT22;7429;52.498;13.480;2023-11-19T11:57:56;11.80;99.90
14682;DHT22;7429;52.498;13.480;2023-11-19T12:01:04;12.00;99.90
14682;DHT22;7429;52.498;13.480;2023-11-19T12:04:12;12.00;99.90
14682;DHT22;7429;52.498;13.480;2023-11-19T12:07:18;12.00;99.90
14682;DHT22;7429;52.498;13.480;2023-11-19T12:11:12;12.00;99.90
14682;DHT22;7429;52.498;13.480;2023-11-19T12:23:33;12.00;99.90
14682;DHT22;7429;52.498;13.480;2023-11-19T12:36:58;12.10;99.90
14682;DHT22;7429;52.498;13.480;2023-11-19T12:41:02;12.00;99.90
14682;DHT22;7429;52.498;13.480;2023-11-19T12:44:14;12.00;99.90
14682;DHT22;7429;52.498;13.480;2023-11-19T12:47:20;12.00;99.90
14682;DHT22;7429;52.498;13.480;2023-11-19T12:50:25;11.90;99.90
14682;DHT22;7429;52.498;13.480;2023-11-19T12:53:47;11.90;99.90
14682;DHT22;7429;52.498;13.480;2023-11-19T12:56:52;11.90;99.90
14682;DHT22;7429;52.498;13.480;2023-11-19T12:59:56;11.80;99.90
14682;DHT22;7429;52.498;13.480;2023-11-19T13:03:03;11.80;99.90
14682;DHT22;7429;52.498;13.480;2023-11-19T13:06:10;11.80;99.90
14682;DHT22;7429;52.498;13.480;2023-11-19T13:09:23;11.80;99.90
14682;DHT22;7429;52.498;13.480;2023-11-19T13:12:27;11.80;99.90
14682;DHT22;7429;52.498;13.480;2023-11-19T13:15:36;11.80;99.90
14682;DHT22;7429;52.498;13.480;2023-11-19T13:18:45;11.80;99.90
14682;DHT22;7429;52.498;13.480;2023-11-19T13:21:49;11.80;99.90
14682;DHT22;7429;52.498;13.480;2023-11-19T13:24:56;11.80;99.90
14682;DHT22;7429;52.498;13.480;2023-11-19T13:28:01;11.90;99.90
14682;DHT22;7429;52.498;13.480;2023-11-19T13:31:08;11.90;99.90
14682;DHT22;7429;52.498;13.480;2023-11-19T13:34:19;11.90;99.90
14682;DHT22;7429;52.498;13.480;2023-11-19T13:37:25;11.90;99.90
14682;DHT22;7429;52.498;13.480;2023-11-19T13:40:33;11.80;99.90
14682;DHT22;7429;52.498;13.480;2023-11-19T13:43:39;11.80;99.90
14682;DHT22;7429;52.498;13.480;2023-11-19T13:46:45;11.80;99.90
14682;DHT22;7429;52.498;13.480;2023-11-19T13:49:49;11.80;99.90
14682;DHT22;7429;52.498;13.480;2023-11-19T13:52:54;11.90;99.90
14682;DHT22;7429;52.498;13.480;2023-11-19T13:56:04;11.80;99.90
14682;DHT22;7429;52.498;13.480;2023-11-19T13:59:16;11.80;99.90
14682;DHT22;7429;52.498;13.480;2023-11-19T14:02:30;11.80;99.90
14682;DHT22;7429;52.498;13.480;2023-11-19T14:05:39;11.80;99.90
14682;DHT22;7429;52.498;13.480;2023-11-19T14:08:57;11.80;99.90
14682;DHT22;7429;52.498;13.480;2023-11-19T14:12:02;11.80;99.90
14682;DHT22;7429;52.498;13.480;2023-11-19T14:15:10;11.80;99.90
14682;DHT22;7429;52.498;13.480;2023-11-19T14:18:20;11.80;99.90
14682;DHT22;7429;52.498;13.480;2023-11-19T14:21:28;11.80;99.90
14682;DHT22;7429;52.498;13.480;2023-11-19T14:24:36;11.80;99.90
14682;DHT22;7429;52.498;13.480;2023-11-19T14:27:47;11.80;99.90
14682;DHT22;7429;52.498;13.480;2023-11-19T14:31:06;11.80;99.90
14682;DHT22;7429;52.498;13.480;2023-11-19T14:34:11;11.70;99.90
14682;DHT22;7429;52.498;13.480;2023-11-19T14:37:19;11.70;99.90
14682;DHT22;7429;52.498;13.480;2023-11-19T14:40:23;11.70;99.90
14682;DHT22;7429;52.498;13.480;2023-11-19T14:43:45;11.70;99.90
14682;DHT22;7429;52.498;13.480;2023-11-19T14:46:49;11.70;99.90
14682;DHT22;7429;52.498;13.480;2023-11-19T14:49:54;11.70;99.90
14682;DHT22;7429;52.498;13.480;2023-11-19T14:53:04;11.70;99.90
14682;DHT22;7429;52.498;13.480;2023-11-19T14:56:11;11.60;99.90
14682;DHT22;7429;52.498;13.480;2023-11-19T14:59:18;11.60;99.90
14682;DHT22;7429;52.498;13.480;2023-11-19T15:02:21;11.60;99.90
14682;DHT22;7429;52.498;13.480;2023-11-19T15:05:25;11.60;99.90
14682;DHT22;7429;52.498;13.480;2023-11-19T15:08:31;11.60;99.90
14682;DHT22;7429;52.498;13.480;2023-11-19T15:11:39;11.60;99.90
14682;DHT22;7429;52.498;13.480;2023-11-19T15:14:43;11.60;99.90
14682;DHT22;7429;52.498;13.480;2023-11-19T15:17:57;11.60;99.90
14682;DHT22;7429;52.498;13.480;2023-11-19T15:21:23;11.60;99.90
14682;DHT22;7429;52.498;13.480;2023-11-19T15:24:28;11.60;99.90
14682;DHT22;7429;52.498;13.480;2023-11-19T15:27:37;11.60;99.90
14682;DHT22;7429;52.498;13.480;2023-11-19T15:30:52;11.50;99.90
14682;DHT22;7429;52.498;13.480;2023-11-19T15:34:05;11.50;99.90
14682;DHT22;7429;52.498;13.480;2023-11-19T15:37:15;11.50;99.90
14682;DHT22;7429;52.498;13.480;2023-11-19T15:40:34;11.40;99.90
14682;DHT22;7429;52.498;13.480;2023-11-19T15:43:49;11.40;99.90
14682;DHT22;7429;52.498;13.480;2023-11-19T15:46:59;11.40;99.90
14682;DHT22;7429;52.498;13.480;2023-11-19T15:50:08;11.40;99.90
14682;DHT22;7429;52.498;13.480;2023-11-19T15:53:17;11.40;99.90
14682;DHT22;7429;52.498;13.480;2023-11-19T15:56:21;11.30;99.90
14682;DHT22;7429;52.498;13.480;2023-11-19T15:59:29;11.30;99.90
14682;DHT22;7429;52.498;13.480;2023-11-19T16:02:59;11.30;99.90
14682;DHT22;7429;52.498;13.480;2023-11-19T16:06:12;11.30;99.90
14682;DHT22;7429;52.498;13.480;2023-11-19T16:25:09;11.10;99.90
14682;DHT22;7429;52.498;13.480;2023-11-19T16:29:04;11.10;99.90
14682;DHT22;7429;52.498;13.480;2023-11-19T16:32:13;11.10;99.90
14682;DHT22;7429;52.498;13.480;2023-11-19T16:35:16;11.10;99.90
14682;DHT22;7429;52.498;13.480;2023-11-19T16:38:20;11.20;99.90
14682;DHT22;7429;52.498;13.480;2023-11-19T16:41:49;11.10;99.90
14682;DHT22;7429;52.498;13.480;2023-11-19T16:45:08;11.10;99.90
14682;DHT22;7429;52.498;13.480;2023-11-19T16:48:18;11.20;99.90
14682;DHT22;7429;52.498;13.480;2023-11-19T16:51:25;11.20;99.90
14682;DHT22;7429;52.498;13.480;2023-11-19T16:54:30;11.20;99.90
14682;DHT22;7429;52.498;13.480;2023-11-19T16:57:35;11.20;99.90
14682;DHT22;7429;52.498;13.480;2023-11-19T17:00:53;11.20;99.90
14682;DHT22;7429;52.498;13.480;2023-11-19T17:03:56;11.20;99.90
14682;DHT22;7429;52.498;13.480;2023-11-19T17:07:00;11.20;99.90
14682;DHT22;7429;52.498;13.480;2023-11-19T17:10:04;11.10;99.90
14682;DHT22;7429;52.498;13.480;2023-11-19T17:13:12;11.10;99.90
14682;DHT22;7429;52.498;13.480;2023-11-19T17:16:19;11.10;99.90
14682;DHT22;7429;52.498;13.480;2023-11-19T17:19:24;11.00;99.90
14682;DHT22;7429;52.498;13.480;2023-11-19T17:22:30;11.00;99.90
14682;DHT22;7429;52.498;13.480;2023-11-19T17:25:41;11.00;99.90
14682;DHT22;7429;52.498;13.480;2023-11-19T17:28:46;11.00;99.90
14682;DHT22;7429;52.498;13.480;2023-11-19T17:31:49;10.90;99.90
14682;DHT22;7429;52.498;13.480;2023-11-19T17:35:01;10.90;99.90
14682;DHT22;7429;52.498;13.480;2023-11-19T17:38:06;10.90;99.90
14682;DHT22;7429;52.498;13.480;2023-11-19T17:41:28;10.90;99.90
14682;DHT22;7429;52.498;13.480;2023-11-19T17:44:36;10.80;99.90
14682;DHT22;7429;52.498;13.480;2023-11-19T17:47:46;10.80;99.90
14682;DHT22;7429;52.498;13.480;2023-11-19T17:50:53;10.90;99.90
14682;DHT22;7429;52.498;13.480;2023-11-19T17:53:59;10.90;99.90
14682;DHT22;7429;52.498;13.480;2023-11-19T17:57:05;10.80;99.90
14682;DHT22;7429;52.498;13.480;2023-11-19T18:00:13;10.80;99.90
14682;DHT22;7429;52.498;13.480;2023-11-19T18:03:18;10.80;99.90
14682;DHT22;7429;52.498;13.480;2023-11-19T18:06:24;10.70;99.90
14682;DHT22;7429;52.498;13.480;2023-11-19T18:09:51;10.70;99.90
14682;DHT22;7429;52.498;13.480;2023-11-19T18:21:53;10.60;99.90
14682;DHT22;7429;52.498;13.480;2023-11-19T18:25:15;10.60;99.90
14682;DHT22;7429;52.498;13.480;2023-11-19T18:28:20;10.60;99.90
14682;DHT22;7429;52.498;13.480;2023-11-19T18:31:37;10.60;99.90
14682;DHT22;7429;52.498;13.480;2023-11-19T18:34:56;10.50;99.90
14682;DHT22;7429;52.498;13.480;2023-11-19T18:38:18;10.50;99.90
14682;DHT22;7429;52.498;13.480;2023-11-19T18:41:54;10.50;99.90
14682;DHT22;7429;52.498;13.480;2023-11-19T18:45:00;10.40;99.90
14682;DHT22;7429;52.498;13.480;2023-11-19T18:48:21;10.50;99.90
14682;DHT22;7429;52.498;13.480;2023-11-19T18:51:57;10.40;99.90
14682;DHT22;7429;52.498;13.480;2023-11-19T18:55:05;10.40;99.90
14682;DHT22;7429;52.498;13.480;2023-11-19T18:58:13;10.30;99.90
14682;DHT22;7429;52.498;13.480;2023-11-19T19:01:35;10.30;99.90
14682;DHT22;7429;52.498;13.480;2023-11-19T19:11:38;10.30;99.90
14682;DHT22;7429;52.498;13.480;2023-11-19T19:21:31;10.20;99.90
14682;DHT22;7429;52.498;13.480;2023-11-19T19:24:39;10.20;99.90
14682;DHT22;7429;52.498;13.480;2023-11-19T19:27:54;10.20;99.90
14682;DHT22;7429;52.498;13.480;2023-11-19T19:31:18;10.20;99.90
14682;DHT22;7429;52.498;13.480;2023-11-19T19:35:04;10.20;99.90
14682;DHT22;7429;52.498;13.480;2023-11-19T19:38:11;10.30;99.90
14682;DHT22;7429;52.498;13.480;2023-11-19T19:41:24;10.30;99.90
14682;DHT22;7429;52.498;13.480;2023-11-19T19:45:13;10.30;99.90
14682;DHT22;7429;52.498;13.480;2023-11-19T19:48:56;10.30;99.90
14682;DHT22;7429;52.498;13.480;2023-11-19T19:52:11;10.30;99.90
14682;DHT22;7429;52.498;13.480;2023-11-19T19:55:25;10.30;99.90
14682;DHT22;7429;52.498;13.480;2023-11-19T19:58:45;10.30;99.90
14682;DHT22;7429;52.498;13.480;2023-11-19T20:01:59;10.30;99.90
14682;DHT22;7429;52.498;13.480;2023-11-19T20:05:12;10.30;99.90
14682;DHT22;7429;52.498;13.480;2023-11-19T20:08:34;10.30;99.90
14682;DHT22;7429;52.498;13.480;2023-11-19T20:11:41;10.30;99.90
14682;DHT22;7429;52.498;13.480;2023-11-19T20:15:10;10.30;99.90
14682;DHT22;7429;52.498;13.480;2023-11-19T20:18:38;10.30;99.90
14682;DHT22;7429;52.498;13.480;2023-11-19T20:22:05;10.30;99.90
14682;DHT22;7429;52.498;13.480;2023-11-19T20:25:46;10.30;99.90
14682;DHT22;7429;52.498;13.480;2023-11-19T20:29:22;10.30;99.90
14682;DHT22;7429;52.498;13.480;2023-11-19T20:32:31;10.30;99.90
14682;DHT22;7429;52.498;13.480;2023-11-19T20:35:47;10.30;99.90
14682;DHT22;7429;52.498;13.480;2023-11-19T20:38:54;10.30;99.90
14682;DHT22;7429;52.498;13.480;2023-11-19T20:42:11;10.30;99.90
14682;DHT22;7429;52.498;13.480;2023-11-19T20:45:28;10.30;99.90
14682;DHT22;7429;52.498;13.480;2023-11-19T20:48:49;10.30;99.90
14682;DHT22;7429;52.498;13.480;2023-11-19T20:52:27;10.30;99.90
14682;DHT22;7429;52.498;13.480;2023-11-19T20:55:33;10.30;99.90
14682;DHT22;7429;52.498;13.480;2023-11-19T21:00:22;10.40;99.90
14682;DHT22;7429;52.498;13.480;2023-11-19T21:02:54;10.40;99.90
14682;DHT22;7429;52.498;13.480;2023-11-19T21:06:17;10.30;99.90
14682;DHT22;7429;52.498;13.480;2023-11-19T21:09:42;10.30;99.90